sensor_id;sensor_type;location;lat;lon;timestamp;pressure;altitude;pressure_sealevel;temperature;humidity
50518;BME280;37075;44.084;2.962;2024-02-23T00:01:47;96673.38;;;7.05;65.01
50518;BME280;37075;44.084;2.962;2024-02-23T00:04:33;96673.72;;;7.04;65.06
50518;BME280;37075;44.084;2.962;2024-02-23T00:07:20;96668.50;;;6.99;65.17
50518;BME280;37075;44.084;2.962;2024-02-23T00:10:07;96674.25;;;6.97;65.27
50518;BME280;37075;44.084;2.962;2024-02-23T00:12:53;96671.53;;;6.97;65.40
50518;BME280;37075;44.084;2.962;2024-02-23T00:15:39;96665.66;;;6.95;65.64
50518;BME280;37075;44.084;2.962;2024-02-23T00:18:25;96663.16;;;6.90;66.05
50518;BME280;37075;44.084;2.962;2024-02-23T00:21:11;96668.25;;;6.92;66.20
50518;BME280;37075;44.084;2.962;2024-02-23T00:23:58;96659.00;;;6.93;66.28
50518;BME280;37075;44.084;2.962;2024-02-23T00:26:45;96660.56;;;6.94;66.44
50518;BME280;37075;44.084;2.962;2024-02-23T00:29:31;96652.44;;;6.94;66.48
50518;BME280;37075;44.084;2.962;2024-02-23T00:32:16;96648.94;;;6.93;66.79
50518;BME280;37075;44.084;2.962;2024-02-23T00:35:03;96640.94;;;6.97;66.72
50518;BME280;37075;44.084;2.962;2024-02-23T00:37:49;96637.19;;;7.01;66.77
50518;BME280;37075;44.084;2.962;2024-02-23T00:40:36;96642.31;;;7.03;66.53
50518;BME280;37075;44.084;2.962;2024-02-23T00:43:22;96645.47;;;7.05;66.60
50518;BME280;37075;44.084;2.962;2024-02-23T00:46:09;96633.94;;;6.96;66.66
50518;BME280;37075;44.084;2.962;2024-02-23T00:48:55;96631.13;;;7.04;66.60
50518;BME280;37075;44.084;2.962;2024-02-23T00:51:41;96626.84;;;7.03;66.53
50518;BME280;37075;44.084;2.962;2024-02-23T00:54:26;96625.81;;;7.08;66.44
50518;BME280;37075;44.084;2.962;2024-02-23T00:57:14;96612.59;;;7.06;66.19
50518;BME280;37075;44.084;2.962;2024-02-23T01:00:00;96617.91;;;7.03;66.07
50518;BME280;37075;44.084;2.962;2024-02-23T01:02:47;96606.59;;;7.01;65.54
50518;BME280;37075;44.084;2.962;2024-02-23T01:05:33;96605.69;;;6.97;65.68
50518;BME280;37075;44.084;2.962;2024-02-23T01:08:19;96602.97;;;6.97;64.99
50518;BME280;37075;44.084;2.962;2024-02-23T01:11:05;96600.28;;;6.97;63.97
50518;BME280;37075;44.084;2.962;2024-02-23T01:13:53;96597.56;;;6.97;64.28
50518;BME280;37075;44.084;2.962;2024-02-23T01:16:39;96601.06;;;6.97;64.10
50518;BME280;37075;44.084;2.962;2024-02-23T01:19:25;96608.06;;;6.98;64.39
50518;BME280;37075;44.084;2.962;2024-02-23T01:22:11;96611.38;;;7.04;64.69
50518;BME280;37075;44.084;2.962;2024-02-23T01:24:57;96613.06;;;7.08;64.25
50518;BME280;37075;44.084;2.962;2024-02-23T01:27:42;96602.00;;;7.14;64.31
50518;BME280;37075;44.084;2.962;2024-02-23T01:30:31;96608.31;;;7.18;64.64
50518;BME280;37075;44.084;2.962;2024-02-23T01:33:16;96607.28;;;7.22;64.65
50518;BME280;37075;44.084;2.962;2024-02-23T01:36:03;96601.41;;;7.20;64.86
50518;BME280;37075;44.084;2.962;2024-02-23T01:38:49;96600.75;;;7.23;64.82
50518;BME280;37075;44.084;2.962;2024-02-23T01:41:35;96603.44;;;7.23;64.94
50518;BME280;37075;44.084;2.962;2024-02-23T01:44:21;96602.66;;;7.23;65.01
50518;BME280;37075;44.084;2.962;2024-02-23T01:47:08;96607.28;;;7.22;65.38
50518;BME280;37075;44.084;2.962;2024-02-23T01:49:55;96608.31;;;7.18;66.09
50518;BME280;37075;44.084;2.962;2024-02-23T01:52:41;96602.44;;;7.16;66.36
50518;BME280;37075;44.084;2.962;2024-02-23T01:55:27;96598.59;;;7.17;66.36
50518;BME280;37075;44.084;2.962;2024-02-23T01:58:14;96590.34;;;7.13;66.68
50518;BME280;37075;44.084;2.962;2024-02-23T02:01:01;96591.59;;;7.16;66.41
50518;BME280;37075;44.084;2.962;2024-02-23T02:03:48;96588.88;;;7.03;66.61
50518;BME280;37075;44.084;2.962;2024-02-23T02:06:34;96581.53;;;7.04;67.11
50518;BME280;37075;44.084;2.962;2024-02-23T02:09:20;96570.59;;;7.13;66.76
50518;BME280;37075;44.084;2.962;2024-02-23T02:12:06;96570.00;;;7.19;66.59
50518;BME280;37075;44.084;2.962;2024-02-23T02:14:52;96558.13;;;7.24;66.70
50518;BME280;37075;44.084;2.962;2024-02-23T02:17:38;96564.47;;;7.28;67.09
50518;BME280;37075;44.084;2.962;2024-02-23T02:20:27;96559.97;;;7.32;66.93
50518;BME280;37075;44.084;2.962;2024-02-23T02:23:14;96560.41;;;7.34;67.10
50518;BME280;37075;44.084;2.962;2024-02-23T02:25:59;96564.34;;;7.36;67.16
50518;BME280;37075;44.084;2.962;2024-02-23T02:28:45;96564.81;;;7.26;67.89
50518;BME280;37075;44.084;2.962;2024-02-23T02:31:32;96567.31;;;7.31;67.50
50518;BME280;37075;44.084;2.962;2024-02-23T02:34:21;96555.78;;;7.34;67.40
50518;BME280;37075;44.084;2.962;2024-02-23T02:37:09;96559.72;;;7.37;67.57
50518;BME280;37075;44.084;2.962;2024-02-23T02:39:55;96566.38;;;7.39;67.50
50518;BME280;37075;44.084;2.962;2024-02-23T02:42:41;96559.50;;;7.42;67.64
50518;BME280;37075;44.084;2.962;2024-02-23T02:45:27;96559.16;;;7.43;67.60
50518;BME280;37075;44.084;2.962;2024-02-23T02:48:12;96569.66;;;7.45;67.65
50518;BME280;37075;44.084;2.962;2024-02-23T02:50:59;96567.72;;;7.46;67.61
50518;BME280;37075;44.084;2.962;2024-02-23T02:53:46;96563.09;;;7.46;67.71
50518;BME280;37075;44.084;2.962;2024-02-23T02:56:32;96555.41;;;7.48;67.67
50518;BME280;37075;44.084;2.962;2024-02-23T02:59:18;96557.66;;;7.46;67.71
50518;BME280;37075;44.084;2.962;2024-02-23T03:02:04;96550.31;;;7.47;67.70
50518;BME280;37075;44.084;2.962;2024-02-23T03:04:50;96539.47;;;7.47;67.73
50518;BME280;37075;44.084;2.962;2024-02-23T03:07:36;96531.00;;;7.48;67.87
50518;BME280;37075;44.084;2.962;2024-02-23T03:10:23;96527.38;;;7.44;68.09
50518;BME280;37075;44.084;2.962;2024-02-23T03:13:09;96534.75;;;7.31;68.12
50518;BME280;37075;44.084;2.962;2024-02-23T03:15:55;96521.41;;;7.38;68.00
50518;BME280;37075;44.084;2.962;2024-02-23T03:18:41;96522.31;;;7.42;68.12
50518;BME280;37075;44.084;2.962;2024-02-23T03:21:27;96519.25;;;7.44;68.02
50518;BME280;37075;44.084;2.962;2024-02-23T03:24:13;96516.19;;;7.46;68.16
50518;BME280;37075;44.084;2.962;2024-02-23T03:27:00;96512.00;;;7.48;68.09
50518;BME280;37075;44.084;2.962;2024-02-23T03:29:46;96514.03;;;7.51;68.11
50518;BME280;37075;44.084;2.962;2024-02-23T03:32:32;96509.38;;;7.52;68.02
50518;BME280;37075;44.084;2.962;2024-02-23T03:35:21;96492.75;;;7.53;68.00
50518;BME280;37075;44.084;2.962;2024-02-23T03:38:06;96504.09;;;7.55;68.11
50518;BME280;37075;44.084;2.962;2024-02-23T03:40:53;96505.19;;;7.54;68.08
50518;BME280;37075;44.084;2.962;2024-02-23T03:43:40;96494.34;;;7.54;67.99
50518;BME280;37075;44.084;2.962;2024-02-23T03:46:26;96488.72;;;7.47;68.03
50518;BME280;37075;44.084;2.962;2024-02-23T03:49:12;96487.25;;;7.50;67.97
50518;BME280;37075;44.084;2.962;2024-02-23T03:51:58;96497.19;;;7.46;67.87
50518;BME280;37075;44.084;2.962;2024-02-23T03:54:43;96485.13;;;7.43;68.10
50518;BME280;37075;44.084;2.962;2024-02-23T03:57:29;96481.41;;;7.35;68.03
50518;BME280;37075;44.084;2.962;2024-02-23T04:00:17;96491.72;;;7.30;68.01
50518;BME280;37075;44.084;2.962;2024-02-23T04:03:04;96491.13;;;7.24;67.84
50518;BME280;37075;44.084;2.962;2024-02-23T04:05:50;96474.84;;;7.24;68.01
50518;BME280;37075;44.084;2.962;2024-02-23T04:08:36;96472.59;;;7.26;68.02
50518;BME280;37075;44.084;2.962;2024-02-23T04:11:22;96475.75;;;7.28;67.90
50518;BME280;37075;44.084;2.962;2024-02-23T04:14:07;96472.72;;;7.30;68.05
50518;BME280;37075;44.084;2.962;2024-02-23T04:16:55;96472.03;;;7.33;68.08
50518;BME280;37075;44.084;2.962;2024-02-23T04:19:41;96470.56;;;7.35;68.11
50518;BME280;37075;44.084;2.962;2024-02-23T04:22:27;96471.78;;;7.38;68.28
50518;BME280;37075;44.084;2.962;2024-02-23T04:25:13;96467.94;;;7.39;68.23
50518;BME280;37075;44.084;2.962;2024-02-23T04:27:59;96470.13;;;7.33;68.19
50518;BME280;37075;44.084;2.962;2024-02-23T04:30:45;96468.09;;;7.30;67.91
50518;BME280;37075;44.084;2.962;2024-02-23T04:33:32;96468.19;;;7.22;67.84
50518;BME280;37075;44.084;2.962;2024-02-23T04:36:19;96467.41;;;7.21;67.78
50518;BME280;37075;44.084;2.962;2024-02-23T04:39:05;96483.81;;;7.13;68.88
50518;BME280;37075;44.084;2.962;2024-02-23T04:41:52;96466.41;;;7.01;69.55
50518;BME280;37075;44.084;2.962;2024-02-23T04:44:38;96468.03;;;6.90;69.63
50518;BME280;37075;44.084;2.962;2024-02-23T04:47:24;96464.19;;;6.91;69.95
50518;BME280;37075;44.084;2.962;2024-02-23T04:50:11;96473.09;;;6.92;69.96
50518;BME280;37075;44.084;2.962;2024-02-23T04:52:57;96469.59;;;6.91;69.71
50518;BME280;37075;44.084;2.962;2024-02-23T04:55:43;96473.22;;;6.95;69.60
50518;BME280;37075;44.084;2.962;2024-02-23T04:58:29;96474.91;;;7.00;69.76
50518;BME280;37075;44.084;2.962;2024-02-23T05:01:15;96476.13;;;7.02;69.37
50518;BME280;37075;44.084;2.962;2024-02-23T05:04:00;96485.53;;;7.05;69.34
50518;BME280;37075;44.084;2.962;2024-02-23T05:06:49;96478.63;;;7.07;69.31
50518;BME280;37075;44.084;2.962;2024-02-23T05:09:35;96482.81;;;7.05;69.50
50518;BME280;37075;44.084;2.962;2024-02-23T05:12:20;96487.91;;;7.06;69.34
50518;BME280;37075;44.084;2.962;2024-02-23T05:15:07;96485.41;;;7.01;69.71
50518;BME280;37075;44.084;2.962;2024-02-23T05:17:53;96488.69;;;6.95;69.75
50518;BME280;37075;44.084;2.962;2024-02-23T05:20:39;96484.28;;;6.90;69.63
50518;BME280;37075;44.084;2.962;2024-02-23T05:23:27;96481.59;;;6.78;70.29
50518;BME280;37075;44.084;2.962;2024-02-23T05:26:13;96483.38;;;6.74;70.43
50518;BME280;37075;44.084;2.962;2024-02-23T05:28:59;96472.88;;;6.72;70.73
50518;BME280;37075;44.084;2.962;2024-02-23T05:31:47;96484.84;;;6.71;71.13
50518;BME280;37075;44.084;2.962;2024-02-23T05:34:33;96473.00;;;6.64;71.18
50518;BME280;37075;44.084;2.962;2024-02-23T05:37:20;96465.66;;;6.64;70.95
50518;BME280;37075;44.084;2.962;2024-02-23T05:40:08;96470.19;;;6.60;70.94
50518;BME280;37075;44.084;2.962;2024-02-23T05:42:55;96461.16;;;6.56;70.49
50518;BME280;37075;44.084;2.962;2024-02-23T05:45:41;96464.53;;;6.53;70.48
50518;BME280;37075;44.084;2.962;2024-02-23T05:48:28;96458.97;;;6.49;70.54
50518;BME280;37075;44.084;2.962;2024-02-23T05:51:14;96457.28;;;6.45;70.26
50518;BME280;37075;44.084;2.962;2024-02-23T05:54:00;96451.88;;;6.45;70.09
50518;BME280;37075;44.084;2.962;2024-02-23T05:56:47;96463.72;;;6.40;69.95
50518;BME280;37075;44.084;2.962;2024-02-23T05:59:33;96461.34;;;6.39;70.07
50518;BME280;37075;44.084;2.962;2024-02-23T06:02:19;96451.19;;;6.36;70.66
50518;BME280;37075;44.084;2.962;2024-02-23T06:05:07;96452.53;;;6.30;70.51
50518;BME280;37075;44.084;2.962;2024-02-23T06:07:53;96457.84;;;6.26;70.81
50518;BME280;37075;44.084;2.962;2024-02-23T06:10:39;96454.00;;;6.27;70.49
50518;BME280;37075;44.084;2.962;2024-02-23T06:13:28;96462.78;;;6.24;70.07
50518;BME280;37075;44.084;2.962;2024-02-23T06:16:14;96450.59;;;6.18;70.69
50518;BME280;37075;44.084;2.962;2024-02-23T06:19:00;96449.69;;;6.14;71.09
50518;BME280;37075;44.084;2.962;2024-02-23T06:21:47;96450.59;;;6.18;70.95
50518;BME280;37075;44.084;2.962;2024-02-23T06:24:34;96437.84;;;6.18;70.60
50518;BME280;37075;44.084;2.962;2024-02-23T06:27:20;96438.63;;;6.19;70.59
50518;BME280;37075;44.084;2.962;2024-02-23T06:30:09;96429.28;;;6.16;70.65
50518;BME280;37075;44.084;2.962;2024-02-23T06:32:55;96423.00;;;6.25;70.25
50518;BME280;37075;44.084;2.962;2024-02-23T06:35:41;96425.03;;;6.28;70.33
50518;BME280;37075;44.084;2.962;2024-02-23T06:38:27;96422.66;;;6.26;69.94
50518;BME280;37075;44.084;2.962;2024-02-23T06:41:13;96423.00;;;6.25;69.81
50518;BME280;37075;44.084;2.962;2024-02-23T06:43:59;96417.56;;;6.25;69.89
50518;BME280;37075;44.084;2.962;2024-02-23T06:46:46;96417.78;;;6.32;69.71
50518;BME280;37075;44.084;2.962;2024-02-23T06:49:32;96425.81;;;6.28;69.57
50518;BME280;37075;44.084;2.962;2024-02-23T06:52:18;96423.88;;;6.29;69.83
50518;BME280;37075;44.084;2.962;2024-02-23T06:55:05;96418.66;;;6.24;69.73
50518;BME280;37075;44.084;2.962;2024-02-23T06:57:51;96420.72;;;6.27;69.93
50518;BME280;37075;44.084;2.962;2024-02-23T07:00:37;96417.78;;;6.32;69.80
50518;BME280;37075;44.084;2.962;2024-02-23T07:03:24;96427.50;;;6.33;69.79
50518;BME280;37075;44.084;2.962;2024-02-23T07:06:11;96421.28;;;6.32;70.07
50518;BME280;37075;44.084;2.962;2024-02-23T07:08:56;96429.97;;;6.38;69.87
50518;BME280;37075;44.084;2.962;2024-02-23T07:11:42;96435.41;;;6.38;69.73
50518;BME280;37075;44.084;2.962;2024-02-23T07:14:30;96442.72;;;6.37;69.94
50518;BME280;37075;44.084;2.962;2024-02-23T07:17:16;96452.66;;;6.33;69.65
50518;BME280;37075;44.084;2.962;2024-02-23T07:20:04;96451.09;;;6.32;69.65
50518;BME280;37075;44.084;2.962;2024-02-23T07:22:51;96453.91;;;6.36;69.83
50518;BME280;37075;44.084;2.962;2024-02-23T07:25:37;96448.94;;;6.38;69.72
50518;BME280;37075;44.084;2.962;2024-02-23T07:28:23;96448.16;;;6.37;69.81
50518;BME280;37075;44.084;2.962;2024-02-23T07:31:10;96446.78;;;6.43;69.79
50518;BME280;37075;44.084;2.962;2024-02-23T07:33:55;96452.53;;;6.42;69.68
50518;BME280;37075;44.084;2.962;2024-02-23T07:36:43;96457.97;;;6.42;69.22
50518;BME280;37075;44.084;2.962;2024-02-23T07:39:31;96459.53;;;6.43;69.25
50518;BME280;37075;44.084;2.962;2024-02-23T07:42:17;96460.78;;;6.45;69.18
50518;BME280;37075;44.084;2.962;2024-02-23T07:45:04;96458.06;;;6.45;69.16
50518;BME280;37075;44.084;2.962;2024-02-23T07:47:50;96467.44;;;6.48;69.17
50518;BME280;37075;44.084;2.962;2024-02-23T07:50:36;96470.03;;;6.44;68.72
50518;BME280;37075;44.084;2.962;2024-02-23T07:53:23;96470.50;;;6.46;68.71
50518;BME280;37075;44.084;2.962;2024-02-23T07:56:09;96468.72;;;6.51;68.62
50518;BME280;37075;44.084;2.962;2024-02-23T07:58:56;96465.00;;;6.55;68.56
50518;BME280;37075;44.084;2.962;2024-02-23T08:01:42;96460.34;;;6.56;68.32
50518;BME280;37075;44.084;2.962;2024-02-23T08:04:28;96464.41;;;6.62;68.67
50518;BME280;37075;44.084;2.962;2024-02-23T08:07:14;96457.09;;;6.62;68.29
50518;BME280;37075;44.084;2.962;2024-02-23T08:10:01;96449.06;;;6.66;68.52
50518;BME280;37075;44.084;2.962;2024-02-23T08:12:49;96448.81;;;6.71;68.37
50518;BME280;37075;44.084;2.962;2024-02-23T08:15:35;96441.84;;;6.70;68.62
50518;BME280;37075;44.084;2.962;2024-02-23T08:18:22;96440.03;;;6.74;68.63
50518;BME280;37075;44.084;2.962;2024-02-23T08:21:09;96440.16;;;6.77;68.54
50518;BME280;37075;44.084;2.962;2024-02-23T08:23:55;96447.25;;;6.82;67.81
50518;BME280;37075;44.084;2.962;2024-02-23T08:26:43;96445.56;;;6.90;67.93
50518;BME280;37075;44.084;2.962;2024-02-23T08:29:29;96442.59;;;6.95;67.87
50518;BME280;37075;44.084;2.962;2024-02-23T08:32:15;96441.91;;;6.98;67.63
50518;BME280;37075;44.084;2.962;2024-02-23T08:35:02;96434.81;;;7.05;68.03
50518;BME280;37075;44.084;2.962;2024-02-23T08:37:49;96437.63;;;7.09;67.68
50518;BME280;37075;44.084;2.962;2024-02-23T08:40:35;96435.91;;;7.17;68.31
50518;BME280;37075;44.084;2.962;2024-02-23T08:43:22;96438.47;;;7.25;67.63
50518;BME280;37075;44.084;2.962;2024-02-23T08:46:08;96432.84;;;7.30;67.68
50518;BME280;37075;44.084;2.962;2024-02-23T08:48:54;96431.00;;;7.34;67.14
50518;BME280;37075;44.084;2.962;2024-02-23T08:51:40;96424.44;;;7.35;66.79
50518;BME280;37075;44.084;2.962;2024-02-23T08:54:26;96430.06;;;7.42;66.75
50518;BME280;37075;44.084;2.962;2024-02-23T08:57:12;96423.22;;;7.33;66.30
50518;BME280;37075;44.084;2.962;2024-02-23T09:00:04;96420.69;;;7.40;66.31
50518;BME280;37075;44.084;2.962;2024-02-23T09:02:50;96428.25;;;7.47;65.93
50518;BME280;37075;44.084;2.962;2024-02-23T09:05:36;96417.28;;;7.43;64.88
50518;BME280;37075;44.084;2.962;2024-02-23T09:08:22;96413.59;;;7.35;64.51
50518;BME280;37075;44.084;2.962;2024-02-23T09:11:08;96419.91;;;7.39;65.09
50518;BME280;37075;44.084;2.962;2024-02-23T09:13:56;96407.59;;;7.42;65.38
50518;BME280;37075;44.084;2.962;2024-02-23T09:16:43;96399.53;;;7.46;65.77
50518;BME280;37075;44.084;2.962;2024-02-23T09:19:29;96398.59;;;7.54;65.80
50518;BME280;37075;44.084;2.962;2024-02-23T09:22:15;96407.38;;;7.63;66.17
50518;BME280;37075;44.084;2.962;2024-02-23T09:25:01;96410.28;;;7.70;65.32
50518;BME280;37075;44.084;2.962;2024-02-23T09:27:49;96394.19;;;7.77;64.81
50518;BME280;37075;44.084;2.962;2024-02-23T09:30:35;96409.78;;;7.80;64.19
50518;BME280;37075;44.084;2.962;2024-02-23T09:33:22;96409.25;;;7.74;63.81
50518;BME280;37075;44.084;2.962;2024-02-23T09:36:08;96404.88;;;7.70;63.65
50518;BME280;37075;44.084;2.962;2024-02-23T09:38:54;96409.06;;;7.67;63.27
50518;BME280;37075;44.084;2.962;2024-02-23T09:41:42;96404.78;;;7.66;62.93
50518;BME280;37075;44.084;2.962;2024-02-23T09:44:32;96413.34;;;7.68;63.14
50518;BME280;37075;44.084;2.962;2024-02-23T09:47:19;96410.38;;;7.73;63.59
50518;BME280;37075;44.084;2.962;2024-02-23T09:50:09;96421.44;;;7.81;63.66
50518;BME280;37075;44.084;2.962;2024-02-23T09:52:56;96412.16;;;7.82;63.47
50518;BME280;37075;44.084;2.962;2024-02-23T09:55:44;96417.91;;;7.80;62.77
50518;BME280;37075;44.084;2.962;2024-02-23T09:58:32;96410.38;;;7.73;63.36
50518;BME280;37075;44.084;2.962;2024-02-23T10:01:26;96409.16;;;7.71;63.37
50518;BME280;37075;44.084;2.962;2024-02-23T10:04:13;96410.72;;;7.72;63.35
50518;BME280;37075;44.084;2.962;2024-02-23T10:07:01;96428.94;;;7.71;63.41
50518;BME280;37075;44.084;2.962;2024-02-23T10:09:49;96411.88;;;7.71;63.84
50518;BME280;37075;44.084;2.962;2024-02-23T10:12:35;96404.97;;;7.73;64.46
50518;BME280;37075;44.084;2.962;2024-02-23T10:15:21;96409.78;;;7.80;64.35
50518;BME280;37075;44.084;2.962;2024-02-23T10:18:07;96396.84;;;7.89;64.50
50518;BME280;37075;44.084;2.962;2024-02-23T10:20:53;96403.16;;;7.93;63.61
50518;BME280;37075;44.084;2.962;2024-02-23T10:23:44;96412.28;;;8.01;63.54
50518;BME280;37075;44.084;2.962;2024-02-23T10:26:30;96416.22;;;8.03;62.80
50518;BME280;37075;44.084;2.962;2024-02-23T10:29:17;96411.34;;;8.09;63.42
50518;BME280;37075;44.084;2.962;2024-02-23T10:32:05;96411.50;;;8.16;62.93
50518;BME280;37075;44.084;2.962;2024-02-23T10:34:54;96413.00;;;8.14;62.71
50518;BME280;37075;44.084;2.962;2024-02-23T10:37:48;96422.47;;;8.20;63.16
50518;BME280;37075;44.084;2.962;2024-02-23T10:40:39;96419.47;;;8.25;62.04
50518;BME280;37075;44.084;2.962;2024-02-23T10:43:30;96426.13;;;8.27;62.52
50518;BME280;37075;44.084;2.962;2024-02-23T10:46:19;96430.66;;;8.36;62.01
50518;BME280;37075;44.084;2.962;2024-02-23T10:49:06;96445.91;;;8.40;60.70
50518;BME280;37075;44.084;2.962;2024-02-23T10:51:53;96427.00;;;8.31;60.41
50518;BME280;37075;44.084;2.962;2024-02-23T10:54:40;96435.31;;;8.35;60.59
50518;BME280;37075;44.084;2.962;2024-02-23T10:57:27;96426.88;;;8.40;61.12
50518;BME280;37075;44.084;2.962;2024-02-23T11:00:14;96434.84;;;8.49;61.24
50518;BME280;37075;44.084;2.962;2024-02-23T11:03:01;96438.78;;;8.51;60.06
50518;BME280;37075;44.084;2.962;2024-02-23T11:05:48;96451.34;;;8.40;61.25
50518;BME280;37075;44.084;2.962;2024-02-23T11:08:35;96440.28;;;8.33;61.53
50518;BME280;37075;44.084;2.962;2024-02-23T11:11:22;96444.88;;;8.32;62.45
50518;BME280;37075;44.084;2.962;2024-02-23T11:14:09;96449.69;;;8.36;62.35
50518;BME280;37075;44.084;2.962;2024-02-23T11:16:55;96454.84;;;8.41;62.76
50518;BME280;37075;44.084;2.962;2024-02-23T11:19:45;96444.94;;;8.48;62.51
50518;BME280;37075;44.084;2.962;2024-02-23T11:22:33;96442.16;;;8.60;62.56
50518;BME280;37075;44.084;2.962;2024-02-23T11:25:20;96438.59;;;8.76;61.48
50518;BME280;37075;44.084;2.962;2024-02-23T11:28:21;96444.66;;;8.85;60.85
50518;BME280;37075;44.084;2.962;2024-02-23T11:31:13;96448.31;;;8.92;60.74
50518;BME280;37075;44.084;2.962;2024-02-23T11:33:59;96449.56;;;8.95;59.87
50518;BME280;37075;44.084;2.962;2024-02-23T11:36:50;96454.91;;;8.91;61.07
50518;BME280;37075;44.084;2.962;2024-02-23T11:39:37;96463.69;;;8.85;61.50
50518;BME280;37075;44.084;2.962;2024-02-23T11:42:24;96446.16;;;8.67;60.18
50518;BME280;37075;44.084;2.962;2024-02-23T11:45:10;96459.75;;;8.51;59.66
50518;BME280;37075;44.084;2.962;2024-02-23T11:47:58;96469.22;;;8.41;59.67
50518;BME280;37075;44.084;2.962;2024-02-23T11:50:45;96448.22;;;8.26;60.26
50518;BME280;37075;44.084;2.962;2024-02-23T11:53:31;96465.38;;;8.14;61.12
50518;BME280;37075;44.084;2.962;2024-02-23T11:56:18;96454.66;;;8.05;61.52
50518;BME280;37075;44.084;2.962;2024-02-23T11:59:05;96460.22;;;8.09;61.69
50518;BME280;37075;44.084;2.962;2024-02-23T12:01:51;96452.06;;;8.09;61.17
50518;BME280;37075;44.084;2.962;2024-02-23T12:04:38;96450.16;;;8.10;60.92
50518;BME280;37075;44.084;2.962;2024-02-23T12:07:25;96451.03;;;8.14;61.40
50518;BME280;37075;44.084;2.962;2024-02-23T12:10:13;96446.19;;;8.23;60.76
50518;BME280;37075;44.084;2.962;2024-02-23T12:13:00;96457.69;;;8.32;60.67
50518;BME280;37075;44.084;2.962;2024-02-23T12:15:46;96433.91;;;8.41;60.34
50518;BME280;37075;44.084;2.962;2024-02-23T12:18:33;96430.81;;;8.43;60.41
50518;BME280;37075;44.084;2.962;2024-02-23T12:21:20;96435.31;;;8.35;61.34
50518;BME280;37075;44.084;2.962;2024-02-23T12:24:07;96455.47;;;8.34;61.84
50518;BME280;37075;44.084;2.962;2024-02-23T12:26:54;96439.47;;;8.17;63.30
50518;BME280;37075;44.084;2.962;2024-02-23T12:29:41;96437.59;;;8.05;64.25
50518;BME280;37075;44.084;2.962;2024-02-23T12:32:27;96435.38;;;7.95;64.52
50518;BME280;37075;44.084;2.962;2024-02-23T12:35:14;96423.56;;;7.87;65.00
50518;BME280;37075;44.084;2.962;2024-02-23T12:38:02;96421.19;;;7.86;64.77
50518;BME280;37075;44.084;2.962;2024-02-23T12:40:48;96409.28;;;7.90;63.62
50518;BME280;37075;44.084;2.962;2024-02-23T12:43:35;96420.16;;;7.90;63.06
50518;BME280;37075;44.084;2.962;2024-02-23T12:46:21;96420.84;;;7.87;64.69
50518;BME280;37075;44.084;2.962;2024-02-23T12:49:08;96410.91;;;7.79;65.90
50518;BME280;37075;44.084;2.962;2024-02-23T12:51:54;96401.44;;;7.73;66.31
50518;BME280;37075;44.084;2.962;2024-02-23T12:54:42;96391.38;;;7.73;68.32
50518;BME280;37075;44.084;2.962;2024-02-23T12:57:28;96394.41;;;7.84;69.23
50518;BME280;37075;44.084;2.962;2024-02-23T13:00:15;96386.16;;;7.96;68.86
50518;BME280;37075;44.084;2.962;2024-02-23T13:03:02;96398.59;;;7.97;69.13
50518;BME280;37075;44.084;2.962;2024-02-23T13:05:48;96409.28;;;7.90;68.12
50518;BME280;37075;44.084;2.962;2024-02-23T13:08:35;96396.28;;;7.68;68.12
50518;BME280;37075;44.084;2.962;2024-02-23T13:11:22;96403.22;;;7.53;68.83
50518;BME280;37075;44.084;2.962;2024-02-23T13:14:08;96393.47;;;7.36;68.69
50518;BME280;37075;44.084;2.962;2024-02-23T13:16:55;96368.41;;;7.27;69.09
50518;BME280;37075;44.084;2.962;2024-02-23T13:19:41;96412.16;;;7.26;69.43
50518;BME280;37075;44.084;2.962;2024-02-23T13:22:27;96401.19;;;7.22;68.61
50518;BME280;37075;44.084;2.962;2024-02-23T13:25:13;96393.00;;;7.06;69.57
50518;BME280;37075;44.084;2.962;2024-02-23T13:28:01;96423.38;;;7.00;70.24
50518;BME280;37075;44.084;2.962;2024-02-23T13:30:47;96398.56;;;6.98;70.25
50518;BME280;37075;44.084;2.962;2024-02-23T13:33:34;96395.97;;;6.89;69.65
50518;BME280;37075;44.084;2.962;2024-02-23T13:36:20;96397.69;;;6.82;69.35
50518;BME280;37075;44.084;2.962;2024-02-23T13:39:06;96399.38;;;6.74;69.63
50518;BME280;37075;44.084;2.962;2024-02-23T13:41:53;96411.13;;;6.78;69.35
50518;BME280;37075;44.084;2.962;2024-02-23T13:44:41;96395.44;;;6.84;68.67
50518;BME280;37075;44.084;2.962;2024-02-23T13:47:27;96395.19;;;6.89;68.06
50518;BME280;37075;44.084;2.962;2024-02-23T13:50:13;96404.22;;;6.93;68.54
50518;BME280;37075;44.084;2.962;2024-02-23T13:53:00;96392.44;;;7.01;67.51
50518;BME280;37075;44.084;2.962;2024-02-23T13:55:46;96398.78;;;7.05;67.37
50518;BME280;37075;44.084;2.962;2024-02-23T13:58:32;96394.25;;;7.09;67.15
50518;BME280;37075;44.084;2.962;2024-02-23T14:01:20;96422.69;;;7.15;66.56
50518;BME280;37075;44.084;2.962;2024-02-23T14:04:07;96388.69;;;7.18;66.02
50518;BME280;37075;44.084;2.962;2024-02-23T14:06:53;96374.88;;;7.23;66.47
50518;BME280;37075;44.084;2.962;2024-02-23T14:09:39;96374.00;;;7.47;67.46
50518;BME280;37075;44.084;2.962;2024-02-23T14:12:26;96383.94;;;7.70;66.56
50518;BME280;37075;44.084;2.962;2024-02-23T14:15:12;96378.34;;;7.79;65.96
50518;BME280;37075;44.084;2.962;2024-02-23T14:18:00;96369.00;;;7.92;65.26
50518;BME280;37075;44.084;2.962;2024-02-23T14:20:46;96380.69;;;8.09;65.53
50518;BME280;37075;44.084;2.962;2024-02-23T14:23:32;96377.41;;;8.03;63.65
50518;BME280;37075;44.084;2.962;2024-02-23T14:26:19;96374.25;;;7.85;62.67
50518;BME280;37075;44.084;2.962;2024-02-23T14:29:06;96380.09;;;7.71;62.73
50518;BME280;37075;44.084;2.962;2024-02-23T14:31:53;96381.41;;;7.62;63.64
50518;BME280;37075;44.084;2.962;2024-02-23T14:34:40;96379.16;;;7.52;65.40
50518;BME280;37075;44.084;2.962;2024-02-23T14:37:27;96367.34;;;7.44;67.04
50518;BME280;37075;44.084;2.962;2024-02-23T14:40:13;96380.91;;;7.44;67.12
50518;BME280;37075;44.084;2.962;2024-02-23T14:43:00;96366.09;;;7.41;66.34
50518;BME280;37075;44.084;2.962;2024-02-23T14:45:47;96365.66;;;7.39;65.66
50518;BME280;37075;44.084;2.962;2024-02-23T14:48:33;96367.97;;;7.53;67.33
50518;BME280;37075;44.084;2.962;2024-02-23T14:51:21;96374.25;;;7.85;67.50
50518;BME280;37075;44.084;2.962;2024-02-23T14:54:07;96370.97;;;8.08;66.91